Time;durP1;ratioP1;P1;durP2;ratioP2;P2;SDS_P1;SDS_P2;PMS_P1;PMS_P2;Temp;Humidity;BMP_temperature;BMP_pressure;BME280_temperature;BME280_humidity;BME280_pressure;Samples;Min_cycle;Max_cycle;Signal;HPM_P1;HPM_P2
2022/10/14 00:00:16;;;;;;;8.63;4.90;;;;;;;;;;5036687;27;89131;-52
2022/10/14 00:02:45;;;;;;;5.03;4.17;;;;;;;;;;5041191;27;88276;-52
2022/10/14 00:05:14;;;;;;;10.67;4.90;;;;;;;;;;5041597;27;89531;-52
2022/10/14 00:07:43;;;;;;;7.30;4.53;;;;;;;;;;5042724;27;86992;-53
2022/10/14 00:10:11;;;;;;;8.27;5.17;;;;;;;;;;5043071;27;88855;-52
2022/10/14 00:12:39;;;;;;;6.40;5.00;;;;;;;;;;5043147;27;87939;-52
2022/10/14 00:15:09;;;;;;;7.17;4.23;;;;;;;;;;5043082;27;88697;-53
2022/10/14 00:17:37;;;;;;;8.07;4.13;;;;;;;;;;5048121;27;87114;-52
2022/10/14 00:20:07;;;;;;;9.43;4.83;;;;;;;;;;5044722;27;89191;-54
2022/10/14 00:22:36;;;;;;;9.97;4.43;;;;;;;;;;5047912;27;87699;-52
2022/10/14 00:25:04;;;;;;;7.30;4.27;;;;;;;;;;5060940;27;87062;-53
2022/10/14 00:27:32;;;;;;;7.40;3.90;;;;;;;;;;5056637;27;87083;-53
2022/10/14 00:30:01;;;;;;;7.13;3.57;;;;;;;;;;5046105;27;90252;-53
2022/10/14 00:32:29;;;;;;;6.73;4.07;;;;;;;;;;5062086;27;88762;-53
2022/10/14 00:34:57;;;;;;;7.43;4.03;;;;;;;;;;5059888;27;88767;-53
2022/10/14 00:37:27;;;;;;;4.03;3.07;;;;;;;;;;5061321;27;87089;-52
2022/10/14 00:39:55;;;;;;;6.37;4.10;;;;;;;;;;5061335;27;88145;-52
2022/10/14 00:42:24;;;;;;;5.43;3.33;;;;;;;;;;5062577;27;88832;-52
2022/10/14 00:45:00;;;;;;;6.37;3.47;;;;;;;;;;5053716;27;87050;-54
2022/10/14 00:47:28;;;;;;;5.33;3.90;;;;;;;;;;5061810;27;86272;-52
2022/10/14 00:49:56;;;;;;;6.50;3.60;;;;;;;;;;5052654;27;86858;-55
2022/10/14 00:52:24;;;;;;;4.47;3.07;;;;;;;;;;5047473;27;88762;-54
2022/10/14 00:54:55;;;;;;;5.70;3.43;;;;;;;;;;5045732;27;88193;-53
2022/10/14 00:57:23;;;;;;;5.93;3.53;;;;;;;;;;5047293;27;86982;-53
2022/10/14 00:59:51;;;;;;;5.30;3.47;;;;;;;;;;5052088;27;89189;-52
2022/10/14 01:02:20;;;;;;;4.53;3.50;;;;;;;;;;5051441;27;88773;-53
2022/10/14 01:04:48;;;;;;;4.43;3.13;;;;;;;;;;5058845;27;87054;-52
2022/10/14 01:07:17;;;;;;;4.17;3.70;;;;;;;;;;5044162;27;88047;-52
2022/10/14 01:09:48;;;;;;;4.63;3.03;;;;;;;;;;5042921;27;87836;-52
2022/10/14 01:12:19;;;;;;;5.40;2.70;;;;;;;;;;5061033;27;88936;-52
2022/10/14 01:14:59;;;;;;;3.17;2.67;;;;;;;;;;5052188;27;86954;-52
2022/10/14 01:17:30;;;;;;;3.77;2.50;;;;;;;;;;5062234;27;87089;-53
2022/10/14 01:20:06;;;;;;;7.90;2.73;;;;;;;;;;5041052;27;89078;-52
2022/10/14 01:22:35;;;;;;;4.70;3.40;;;;;;;;;;5041710;28;89673;-52
2022/10/14 01:25:07;;;;;;;4.93;2.93;;;;;;;;;;5040751;27;87691;-52
2022/10/14 01:27:54;;;;;;;3.43;2.97;;;;;;;;;;5041300;27;87260;-52
2022/10/14 01:30:24;;;;;;;5.37;3.00;;;;;;;;;;5042719;27;88020;-52
2022/10/14 01:32:55;;;;;;;4.10;3.13;;;;;;;;;;5044287;27;87955;-52
2022/10/14 01:35:25;;;;;;;6.03;2.83;;;;;;;;;;5055914;27;86991;-52
2022/10/14 01:37:54;;;;;;;3.60;2.40;;;;;;;;;;5051889;27;86468;-52
2022/10/14 01:40:23;;;;;;;4.73;2.87;;;;;;;;;;5041981;27;89058;-52
2022/10/14 01:42:51;;;;;;;4.93;2.90;;;;;;;;;;5042223;27;87513;-52
2022/10/14 01:45:20;;;;;;;5.33;3.40;;;;;;;;;;5059488;27;88033;-52
2022/10/14 01:47:50;;;;;;;3.47;2.77;;;;;;;;;;5047875;27;86926;-52
2022/10/14 01:50:19;;;;;;;2.93;2.33;;;;;;;;;;5044276;27;88171;-52
2022/10/14 01:52:48;;;;;;;5.60;2.70;;;;;;;;;;5054850;27;88287;-52
2022/10/14 01:55:17;;;;;;;3.63;2.53;;;;;;;;;;5052788;27;87359;-52
2022/10/14 01:57:46;;;;;;;3.23;2.47;;;;;;;;;;5056109;27;87122;-52
2022/10/14 02:00:14;;;;;;;4.87;3.03;;;;;;;;;;5044919;27;88988;-52
2022/10/14 02:02:43;;;;;;;4.97;2.87;;;;;;;;;;5059625;27;87633;-52
2022/10/14 02:05:15;;;;;;;3.43;2.47;;;;;;;;;;5058363;27;87071;-52
2022/10/14 02:07:43;;;;;;;6.50;4.00;;;;;;;;;;5047238;27;86980;-52
2022/10/14 02:10:14;;;;;;;3.50;2.03;;;;;;;;;;5060985;27;90102;-52
2022/10/14 02:12:45;;;;;;;4.60;2.60;;;;;;;;;;5041268;27;89553;-52
2022/10/14 02:15:20;;;;;;;7.23;3.10;;;;;;;;;;5054050;27;87057;-52
2022/10/14 02:17:49;;;;;;;3.70;2.73;;;;;;;;;;5043549;27;88033;-52
2022/10/14 02:20:21;;;;;;;3.63;2.50;;;;;;;;;;5044245;27;87855;-52
2022/10/14 02:22:50;;;;;;;4.43;3.20;;;;;;;;;;5057804;27;88976;-52
2022/10/14 02:25:19;;;;;;;4.53;2.83;;;;;;;;;;5050652;27;87243;-52
2022/10/14 02:27:47;;;;;;;4.47;2.50;;;;;;;;;;5051525;27;86377;-52
2022/10/14 02:30:16;;;;;;;5.00;2.37;;;;;;;;;;5050113;27;89222;-52
2022/10/14 02:32:44;;;;;;;5.23;2.50;;;;;;;;;;5042353;27;87434;-52
2022/10/14 02:35:12;;;;;;;2.80;2.23;;;;;;;;;;5047006;27;88150;-52
2022/10/14 02:37:42;;;;;;;4.37;2.50;;;;;;;;;;5059515;27;87109;-52
2022/10/14 02:40:11;;;;;;;5.77;2.57;;;;;;;;;;5053355;27;88059;-52
2022/10/14 02:42:39;;;;;;;5.93;2.63;;;;;;;;;;5035772;27;87798;-52
2022/10/14 02:45:08;;;;;;;3.93;2.60;;;;;;;;;;5042383;27;88527;-52
2022/10/14 02:47:36;;;;;;;4.83;2.60;;;;;;;;;;5043873;27;88783;-53
2022/10/14 02:50:05;;;;;;;4.23;2.77;;;;;;;;;;5053601;27;88140;-52
2022/10/14 02:52:33;;;;;;;4.80;2.70;;;;;;;;;;5040886;27;87566;-52
2022/10/14 02:55:02;;;;;;;3.73;2.30;;;;;;;;;;5050654;27;87208;-52
2022/10/14 02:57:31;;;;;;;5.03;2.50;;;;;;;;;;5059589;27;87026;-52
2022/10/14 02:59:59;;;;;;;4.90;2.90;;;;;;;;;;5044587;27;87821;-52
2022/10/14 03:02:27;;;;;;;3.20;2.50;;;;;;;;;;5049150;27;88565;-52
2022/10/14 03:04:56;;;;;;;6.10;3.30;;;;;;;;;;5047737;27;87143;-52
2022/10/14 03:07:25;;;;;;;3.87;2.23;;;;;;;;;;5061229;27;87011;-52
2022/10/14 03:09:53;;;;;;;5.23;2.63;;;;;;;;;;5059408;27;89055;-52
2022/10/14 03:12:22;;;;;;;5.43;2.90;;;;;;;;;;5049728;27;87614;-52
2022/10/14 03:14:51;;;;;;;6.73;3.13;;;;;;;;;;5047364;27;87050;-52
2022/10/14 03:17:19;;;;;;;6.53;2.20;;;;;;;;;;5047191;27;86373;-52
2022/10/14 03:19:48;;;;;;;3.70;3.07;;;;;;;;;;5050528;27;88505;-52
2022/10/14 03:22:16;;;;;;;4.97;2.50;;;;;;;;;;5051274;27;86955;-52
2022/10/14 03:24:44;;;;;;;6.47;2.50;;;;;;;;;;5041192;27;88013;-52
2022/10/14 03:27:12;;;;;;;4.97;2.90;;;;;;;;;;5054459;27;87050;-52
2022/10/14 03:29:42;;;;;;;7.57;2.67;;;;;;;;;;5058217;27;88063;-52
2022/10/14 03:32:10;;;;;;;4.47;3.07;;;;;;;;;;5046252;27;87559;-52
2022/10/14 03:34:39;;;;;;;8.37;3.40;;;;;;;;;;5056303;27;86999;-52
2022/10/14 03:37:07;;;;;;;7.03;3.20;;;;;;;;;;5059432;27;88595;-52
2022/10/14 03:39:35;;;;;;;5.63;3.60;;;;;;;;;;5063347;27;87717;-52
2022/10/14 03:42:04;;;;;;;5.93;4.00;;;;;;;;;;5059757;27;87596;-52
2022/10/14 03:44:32;;;;;;;7.00;3.70;;;;;;;;;;5055528;27;88457;-52
2022/10/14 03:47:02;;;;;;;7.67;4.40;;;;;;;;;;5064626;27;87019;-52
2022/10/14 03:49:30;;;;;;;10.03;3.60;;;;;;;;;;5062162;27;88961;-52
2022/10/14 03:51:58;;;;;;;6.97;3.20;;;;;;;;;;5050064;27;88863;-52
2022/10/14 03:54:26;;;;;;;7.63;3.47;;;;;;;;;;5057608;27;87009;-52
2022/10/14 03:56:55;;;;;;;7.67;3.70;;;;;;;;;;5045247;27;86966;-52
2022/10/14 03:59:23;;;;;;;6.27;4.67;;;;;;;;;;5044721;27;87905;-52
2022/10/14 04:01:51;;;;;;;7.93;4.53;;;;;;;;;;5048662;27;87832;-52
2022/10/14 04:04:21;;;;;;;8.20;4.43;;;;;;;;;;5062744;27;86814;-52
2022/10/14 04:06:49;;;;;;;7.53;4.97;;;;;;;;;;5062882;27;86713;-53
2022/10/14 04:09:17;;;;;;;7.60;5.07;;;;;;;;;;5050272;27;89059;-53
2022/10/14 04:11:46;;;;;;;9.63;5.60;;;;;;;;;;5044371;27;88177;-52
2022/10/14 04:14:14;;;;;;;10.40;6.30;;;;;;;;;;5051274;27;88027;-52
2022/10/14 04:16:42;;;;;;;10.80;5.80;;;;;;;;;;5056854;27;88462;-52
2022/10/14 04:19:17;;;;;;;6.73;4.90;;;;;;;;;;5054044;27;87988;-52
2022/10/14 04:21:46;;;;;;;10.40;5.37;;;;;;;;;;5057141;27;89075;-51
2022/10/14 04:24:15;;;;;;;9.90;5.43;;;;;;;;;;5060527;27;87102;-52
2022/10/14 04:26:43;;;;;;;9.10;5.83;;;;;;;;;;5059494;27;87877;-51
2022/10/14 04:29:11;;;;;;;13.40;5.77;;;;;;;;;;5060455;27;89385;-51
2022/10/14 04:31:40;;;;;;;7.27;5.53;;;;;;;;;;5059199;27;88235;-52
2022/10/14 04:34:08;;;;;;;13.90;6.47;;;;;;;;;;5060885;27;87100;-52
2022/10/14 04:36:36;;;;;;;12.90;5.63;;;;;;;;;;5060913;27;87000;-52
2022/10/14 04:39:06;;;;;;;11.90;6.37;;;;;;;;;;5058815;27;90170;-51
2022/10/14 04:41:34;;;;;;;10.10;5.73;;;;;;;;;;5058510;27;88959;-52
2022/10/14 04:44:02;;;;;;;12.00;6.40;;;;;;;;;;5061563;27;87083;-52
2022/10/14 04:46:31;;;;;;;8.97;5.50;;;;;;;;;;5056486;27;88388;-52
2022/10/14 04:48:59;;;;;;;9.13;5.97;;;;;;;;;;5057945;27;87889;-57
2022/10/14 04:51:28;;;;;;;12.30;7.07;;;;;;;;;;5059386;27;87347;-54
2022/10/14 04:53:57;;;;;;;11.47;7.10;;;;;;;;;;5055786;27;87000;-54
2022/10/14 04:56:26;;;;;;;9.63;5.90;;;;;;;;;;5058982;27;86187;-54
2022/10/14 04:58:54;;;;;;;13.27;5.77;;;;;;;;;;5059391;27;88164;-54
2022/10/14 05:01:23;;;;;;;12.47;6.63;;;;;;;;;;5053845;27;86778;-53
2022/10/14 05:03:51;;;;;;;10.77;6.17;;;;;;;;;;5044938;27;87967;-56
2022/10/14 05:06:19;;;;;;;12.97;6.77;;;;;;;;;;5051760;27;88436;-54
2022/10/14 05:08:48;;;;;;;21.57;7.03;;;;;;;;;;5043345;27;87314;-54
2022/10/14 05:11:16;;;;;;;11.23;7.07;;;;;;;;;;5045295;27;87791;-54
2022/10/14 05:13:46;;;;;;;13.30;6.00;;;;;;;;;;5060101;27;87360;-54
2022/10/14 05:16:14;;;;;;;12.47;6.93;;;;;;;;;;5044615;27;87011;-54
2022/10/14 05:18:42;;;;;;;12.10;6.37;;;;;;;;;;5060548;27;89050;-54
2022/10/14 05:21:11;;;;;;;12.67;6.47;;;;;;;;;;5060763;27;87743;-54
2022/10/14 05:23:39;;;;;;;11.97;6.10;;;;;;;;;;5044198;27;87146;-55
2022/10/14 05:26:09;;;;;;;13.70;6.57;;;;;;;;;;5049094;27;86816;-54
2022/10/14 05:28:38;;;;;;;15.50;7.23;;;;;;;;;;5057183;27;88849;-54
2022/10/14 05:31:07;;;;;;;11.83;5.97;;;;;;;;;;5062164;27;89972;-54
2022/10/14 05:33:36;;;;;;;11.17;5.67;;;;;;;;;;5057403;27;87116;-55
2022/10/14 05:36:04;;;;;;;8.97;5.63;;;;;;;;;;5049874;27;86919;-53
2022/10/14 05:38:33;;;;;;;9.63;5.97;;;;;;;;;;5062595;27;87728;-55
2022/10/14 05:41:01;;;;;;;13.47;7.43;;;;;;;;;;5050213;27;88888;-55
2022/10/14 05:43:30;;;;;;;9.07;5.63;;;;;;;;;;5048935;27;87079;-54
2022/10/14 05:46:00;;;;;;;11.57;6.83;;;;;;;;;;5042679;27;86259;-56
2022/10/14 05:48:31;;;;;;;11.27;6.10;;;;;;;;;;5044627;27;88476;-54
2022/10/14 05:51:01;;;;;;;11.90;6.27;;;;;;;;;;5058484;27;88917;-55
2022/10/14 05:53:29;;;;;;;13.30;6.53;;;;;;;;;;5047688;27;87675;-51
2022/10/14 05:56:01;;;;;;;12.43;6.17;;;;;;;;;;5050336;27;87185;-51
2022/10/14 05:58:30;;;;;;;13.73;6.63;;;;;;;;;;5041078;28;87825;-54
2022/10/14 06:01:00;;;;;;;14.10;6.37;;;;;;;;;;5040209;27;88763;-54
2022/10/14 06:03:29;;;;;;;11.40;6.30;;;;;;;;;;5041717;27;86995;-55
2022/10/14 06:05:58;;;;;;;10.90;6.03;;;;;;;;;;5040563;27;87116;-54
2022/10/14 06:08:26;;;;;;;9.43;5.57;;;;;;;;;;5041053;28;89667;-55
2022/10/14 06:10:55;;;;;;;11.47;6.80;;;;;;;;;;5040523;27;87525;-52
2022/10/14 06:13:23;;;;;;;10.37;6.17;;;;;;;;;;5040914;27;87248;-56
2022/10/14 06:15:51;;;;;;;9.83;6.03;;;;;;;;;;5041120;27;87046;-56
2022/10/14 06:18:19;;;;;;;9.50;5.00;;;;;;;;;;5040227;27;88845;-56
2022/10/14 06:20:53;;;;;;;8.67;6.03;;;;;;;;;;5040892;27;88843;-56
2022/10/14 06:23:21;;;;;;;10.33;6.37;;;;;;;;;;5041923;27;86761;-57
2022/10/14 06:25:50;;;;;;;7.00;4.60;;;;;;;;;;5041065;27;86955;-56
2022/10/14 06:28:18;;;;;;;12.60;6.27;;;;;;;;;;5046412;27;89023;-56
2022/10/14 06:30:49;;;;;;;11.60;7.10;;;;;;;;;;5049192;27;89070;-55
2022/10/14 06:33:19;;;;;;;9.47;5.70;;;;;;;;;;5041742;27;86896;-55
2022/10/14 06:35:47;;;;;;;12.70;6.17;;;;;;;;;;5047593;27;86177;-52
2022/10/14 06:38:17;;;;;;;7.90;5.47;;;;;;;;;;5051873;27;89087;-52
2022/10/14 06:40:45;;;;;;;12.67;5.70;;;;;;;;;;5053563;27;88862;-51
2022/10/14 06:43:14;;;;;;;9.60;5.47;;;;;;;;;;5049180;27;88153;-52
2022/10/14 06:45:42;;;;;;;9.47;4.57;;;;;;;;;;5054537;27;87383;-52
2022/10/14 06:48:10;;;;;;;8.70;5.70;;;;;;;;;;5055983;27;87825;-53
2022/10/14 06:50:39;;;;;;;9.17;5.53;;;;;;;;;;5051872;27;88555;-52
2022/10/14 06:53:07;;;;;;;11.63;4.77;;;;;;;;;;5060147;27;87445;-51
2022/10/14 06:55:37;;;;;;;8.03;5.53;;;;;;;;;;5053701;27;86942;-51
2022/10/14 06:58:05;;;;;;;10.00;5.67;;;;;;;;;;5048162;27;89125;-51
2022/10/14 07:00:33;;;;;;;9.33;6.47;;;;;;;;;;5042306;27;87635;-52
2022/10/14 07:03:02;;;;;;;10.90;5.70;;;;;;;;;;5053205;27;87095;-52
2022/10/14 07:05:31;;;;;;;9.20;5.07;;;;;;;;;;5046684;27;87071;-52
2022/10/14 07:07:59;;;;;;;7.47;4.83;;;;;;;;;;5049429;27;90026;-52
2022/10/14 07:10:32;;;;;;;8.33;4.83;;;;;;;;;;5045280;27;88083;-52
2022/10/14 07:13:02;;;;;;;14.27;5.77;;;;;;;;;;5057257;27;86822;-52
2022/10/14 07:15:30;;;;;;;7.63;5.30;;;;;;;;;;5063091;27;86969;-52
2022/10/14 07:18:04;;;;;;;9.70;5.03;;;;;;;;;;5044949;28;89020;-52
2022/10/14 07:20:32;;;;;;;8.33;5.00;;;;;;;;;;5045148;27;88850;-52
2022/10/14 07:23:01;;;;;;;9.30;5.30;;;;;;;;;;5047032;27;86987;-52
2022/10/14 07:25:29;;;;;;;8.13;4.33;;;;;;;;;;5065642;27;86079;-52
2022/10/14 07:27:57;;;;;;;7.33;4.30;;;;;;;;;;5064655;27;87856;-52
2022/10/14 07:30:27;;;;;;;7.93;5.40;;;;;;;;;;5058019;27;88782;-52
2022/10/14 07:32:55;;;;;;;7.47;4.57;;;;;;;;;;5048301;27;88009;-52
2022/10/14 07:35:25;;;;;;;10.20;5.00;;;;;;;;;;5062137;27;88771;-52
2022/10/14 07:37:54;;;;;;;9.30;5.07;;;;;;;;;;5065277;27;87920;-52
2022/10/14 07:40:22;;;;;;;7.17;5.10;;;;;;;;;;5054411;27;88701;-52
2022/10/14 07:42:53;;;;;;;7.60;4.67;;;;;;;;;;5054224;27;87027;-52
2022/10/14 07:45:21;;;;;;;9.70;5.30;;;;;;;;;;5054815;27;87107;-52
2022/10/14 07:47:51;;;;;;;6.90;4.40;;;;;;;;;;5053442;27;89177;-52
2022/10/14 07:50:19;;;;;;;8.70;4.37;;;;;;;;;;5052313;27;88795;-52
2022/10/14 07:52:48;;;;;;;6.87;4.60;;;;;;;;;;5049380;27;87031;-52
2022/10/14 07:55:16;;;;;;;6.47;4.07;;;;;;;;;;5057025;27;87066;-52
2022/10/14 07:57:44;;;;;;;7.20;3.97;;;;;;;;;;5043825;27;89067;-51
2022/10/14 08:00:13;;;;;;;5.77;3.97;;;;;;;;;;5052378;27;88704;-52
2022/10/14 08:02:41;;;;;;;6.00;4.30;;;;;;;;;;5064880;27;86903;-54
2022/10/14 08:05:11;;;;;;;5.60;3.63;;;;;;;;;;5064701;27;86961;-52
2022/10/14 08:07:59;;;;;;;6.63;3.87;;;;;;;;;;5064484;27;87819;-51
2022/10/14 08:10:28;;;;;;;6.47;3.10;;;;;;;;;;5064381;27;86997;-53
2022/10/14 08:12:57;;;;;;;7.33;3.77;;;;;;;;;;5051453;27;87030;-53
2022/10/14 08:15:27;;;;;;;5.73;3.70;;;;;;;;;;5044315;27;86332;-54
2022/10/14 08:17:55;;;;;;;11.37;3.93;;;;;;;;;;5044256;27;88076;-55
2022/10/14 08:20:27;;;;;;;6.17;3.97;;;;;;;;;;5044507;27;87605;-55
2022/10/14 08:22:55;;;;;;;5.33;3.10;;;;;;;;;;5049210;27;87951;-54
2022/10/14 08:25:24;;;;;;;4.67;3.20;;;;;;;;;;5062251;27;87047;-53
2022/10/14 08:27:53;;;;;;;5.63;3.97;;;;;;;;;;5043536;27;89036;-55
2022/10/14 08:30:21;;;;;;;5.27;3.77;;;;;;;;;;5042944;27;87655;-54
2022/10/14 08:32:50;;;;;;;6.23;3.80;;;;;;;;;;5044171;27;86864;-54
2022/10/14 08:35:18;;;;;;;6.10;3.30;;;;;;;;;;5044197;27;86897;-54
2022/10/14 08:37:57;;;;;;;4.37;2.60;;;;;;;;;;5044324;27;87796;-55
2022/10/14 08:40:25;;;;;;;3.67;2.70;;;;;;;;;;5043503;27;87650;-54
2022/10/14 08:42:55;;;;;;;5.53;3.00;;;;;;;;;;5043756;27;87028;-55
2022/10/14 08:45:25;;;;;;;4.57;3.33;;;;;;;;;;5042809;27;87010;-54
2022/10/14 08:47:54;;;;;;;5.10;3.17;;;;;;;;;;5042241;27;89318;-53
2022/10/14 08:50:24;;;;;;;4.50;2.77;;;;;;;;;;5043538;27;88423;-55
2022/10/14 08:52:53;;;;;;;2.40;2.10;;;;;;;;;;5044269;27;87011;-55
2022/10/14 08:55:33;;;;;;;6.07;3.13;;;;;;;;;;5044055;27;86916;-54
2022/10/14 08:58:02;;;;;;;4.83;2.90;;;;;;;;;;5043480;27;88935;-54
2022/10/14 09:00:34;;;;;;;5.27;2.90;;;;;;;;;;5043519;27;88871;-54
2022/10/14 09:03:03;;;;;;;5.13;3.17;;;;;;;;;;5043845;28;87036;-54
2022/10/14 09:05:32;;;;;;;4.07;2.23;;;;;;;;;;5043963;27;86262;-55
2022/10/14 09:08:01;;;;;;;5.07;2.27;;;;;;;;;;5043141;27;88488;-54
2022/10/14 09:10:32;;;;;;;5.67;3.53;;;;;;;;;;5043335;27;88956;-54
2022/10/14 09:13:02;;;;;;;4.27;2.57;;;;;;;;;;5042808;27;87766;-54
2022/10/14 09:15:31;;;;;;;3.90;2.70;;;;;;;;;;5043688;28;86980;-54
2022/10/14 09:18:02;;;;;;;3.03;2.60;;;;;;;;;;5043569;27;88729;-54
2022/10/14 09:20:31;;;;;;;2.90;2.40;;;;;;;;;;5043211;27;88382;-54
2022/10/14 09:23:06;;;;;;;2.90;2.33;;;;;;;;;;5043469;28;86923;-54
2022/10/14 09:25:36;;;;;;;2.33;2.10;;;;;;;;;;5043543;27;86931;-55
2022/10/14 09:28:04;;;;;;;3.70;2.80;;;;;;;;;;5042607;27;88093;-55
2022/10/14 09:30:35;;;;;;;3.00;2.13;;;;;;;;;;5042105;27;87546;-54
2022/10/14 09:33:05;;;;;;;4.73;2.40;;;;;;;;;;5043739;27;86893;-53
2022/10/14 09:35:34;;;;;;;4.77;2.70;;;;;;;;;;5043315;27;86862;-55
2022/10/14 09:38:03;;;;;;;3.67;2.40;;;;;;;;;;5041910;27;89947;-54
2022/10/14 09:40:32;;;;;;;1.90;1.60;;;;;;;;;;5042558;28;88574;-54
2022/10/14 09:43:02;;;;;;;3.80;2.17;;;;;;;;;;5042741;27;87025;-55
2022/10/14 09:45:31;;;;;;;2.97;2.00;;;;;;;;;;5043202;27;86968;-55
2022/10/14 09:48:02;;;;;;;2.50;2.20;;;;;;;;;;5042746;27;87016;-55
2022/10/14 09:50:32;;;;;;;2.20;2.00;;;;;;;;;;5042936;28;89087;-55
2022/10/14 09:53:01;;;;;;;1.73;1.63;;;;;;;;;;5043260;28;86826;-56
2022/10/14 09:55:29;;;;;;;2.50;1.83;;;;;;;;;;5043152;27;86317;-57
2022/10/14 09:58:06;;;;;;;2.13;1.90;;;;;;;;;;5042422;27;88204;-55
2022/10/14 10:00:36;;;;;;;2.87;1.67;;;;;;;;;;5042339;28;88805;-55
2022/10/14 10:03:05;;;;;;;2.03;1.87;;;;;;;;;;5041891;27;87674;-53
2022/10/14 10:05:34;;;;;;;2.60;1.40;;;;;;;;;;5042818;27;87142;-59
2022/10/14 10:08:10;;;;;;;4.50;2.00;;;;;;;;;;5042537;27;89021;-56
2022/10/14 10:10:38;;;;;;;2.10;1.80;;;;;;;;;;5041661;27;87998;-55
2022/10/14 10:13:11;;;;;;;2.63;1.63;;;;;;;;;;5042106;27;86830;-54
2022/10/14 10:15:40;;;;;;;2.07;1.63;;;;;;;;;;5042471;27;86991;-54
2022/10/14 10:18:13;;;;;;;2.67;1.33;;;;;;;;;;5042241;28;88999;-54
2022/10/14 10:20:41;;;;;;;1.70;1.60;;;;;;;;;;5042745;27;88884;-55
2022/10/14 10:23:23;;;;;;;1.60;1.40;;;;;;;;;;5042360;27;86958;-55
2022/10/14 10:25:52;;;;;;;1.63;1.53;;;;;;;;;;5041906;27;87372;-55
2022/10/14 10:28:25;;;;;;;1.97;1.37;;;;;;;;;;5041385;28;90014;-54
2022/10/14 10:30:58;;;;;;;4.40;1.70;;;;;;;;;;5041254;27;89593;-54
2022/10/14 10:33:28;;;;;;;1.70;1.27;;;;;;;;;;5041972;27;87120;-54
2022/10/14 10:36:01;;;;;;;1.40;1.30;;;;;;;;;;5041363;27;86890;-53
2022/10/14 10:38:30;;;;;;;2.20;1.10;;;;;;;;;;5041992;27;88195;-54
2022/10/14 10:41:02;;;;;;;2.10;1.37;;;;;;;;;;5041855;27;87641;-54
2022/10/14 10:43:36;;;;;;;1.20;1.00;;;;;;;;;;5042748;28;87020;-55
2022/10/14 10:46:08;;;;;;;1.23;1.13;;;;;;;;;;5042706;27;86114;-54
2022/10/14 10:48:38;;;;;;;1.60;1.30;;;;;;;;;;5040803;27;89126;-55
2022/10/14 10:51:08;;;;;;;1.37;1.20;;;;;;;;;;5041496;28;88958;-55
2022/10/14 10:53:45;;;;;;;1.70;1.60;;;;;;;;;;5041423;27;89033;-53
2022/10/14 10:56:17;;;;;;;2.63;1.77;;;;;;;;;;5041738;27;87028;-54
2022/10/14 10:58:50;;;;;;;1.20;1.10;;;;;;;;;;5041780;27;88066;-53
2022/10/14 11:01:24;;;;;;;1.60;1.50;;;;;;;;;;5041397;27;86883;-53
2022/10/14 11:03:55;;;;;;;1.23;1.13;;;;;;;;;;5041926;28;86712;-54
2022/10/14 11:12:09;;;;;;;1.63;1.20;;;;;;;;;;5016433;27;88882;-54
2022/10/14 11:14:45;;;;;;;2.67;1.30;;;;;;;;;;5041777;27;86878;-53
2022/10/14 11:17:15;;;;;;;1.40;1.30;;;;;;;;;;5041926;27;87074;-54
2022/10/14 11:19:44;;;;;;;1.30;1.20;;;;;;;;;;5040934;27;89094;-54
2022/10/14 11:22:16;;;;;;;1.97;1.67;;;;;;;;;;5041506;27;89814;-54
2022/10/14 11:24:46;;;;;;;1.63;1.27;;;;;;;;;;5041767;27;86716;-54
2022/10/14 11:27:16;;;;;;;1.50;1.27;;;;;;;;;;5041478;27;88419;-53
2022/10/14 11:29:56;;;;;;;1.43;1.30;;;;;;;;;;5041106;27;89325;-54
2022/10/14 11:32:27;;;;;;;1.60;1.47;;;;;;;;;;5040941;28;88866;-55
2022/10/14 11:34:59;;;;;;;1.47;1.37;;;;;;;;;;5041519;27;86969;-53
2022/10/14 11:37:29;;;;;;;1.60;1.23;;;;;;;;;;5041759;27;86334;-55
2022/10/14 11:39:58;;;;;;;1.63;1.50;;;;;;;;;;5041781;27;88024;-54
2022/10/14 11:42:28;;;;;;;1.57;1.13;;;;;;;;;;5041623;28;88960;-54
2022/10/14 11:45:01;;;;;;;2.30;1.40;;;;;;;;;;5041008;27;87955;-54
2022/10/14 11:47:31;;;;;;;1.67;1.03;;;;;;;;;;5041535;27;87088;-54
2022/10/14 11:50:00;;;;;;;1.83;1.20;;;;;;;;;;5041046;27;86966;-54
2022/10/14 11:52:29;;;;;;;1.80;1.30;;;;;;;;;;5041213;27;87608;-53
2022/10/14 11:54:58;;;;;;;2.00;1.37;;;;;;;;;;5041366;27;87135;-54
2022/10/14 11:57:30;;;;;;;1.43;1.30;;;;;;;;;;5040372;27;86985;-53
2022/10/14 12:00:00;;;;;;;2.27;1.10;;;;;;;;;;5042484;27;88205;-54
2022/10/14 12:02:37;;;;;;;1.30;1.10;;;;;;;;;;5045132;27;88676;-54
2022/10/14 12:05:08;;;;;;;1.40;0.93;;;;;;;;;;5044681;28;86956;-55
2022/10/14 12:07:38;;;;;;;2.17;1.40;;;;;;;;;;5044920;27;86981;-54
2022/10/14 12:10:07;;;;;;;1.30;1.20;;;;;;;;;;5043497;28;87941;-54
2022/10/14 12:12:35;;;;;;;1.40;1.10;;;;;;;;;;5043734;27;88915;-54
2022/10/14 12:15:06;;;;;;;1.33;1.10;;;;;;;;;;5044860;27;87042;-55
2022/10/14 12:17:35;;;;;;;1.37;1.27;;;;;;;;;;5044566;28;87164;-55
2022/10/14 12:20:04;;;;;;;1.33;1.23;;;;;;;;;;5044413;27;89480;-56
2022/10/14 12:22:33;;;;;;;2.00;1.30;;;;;;;;;;5043885;27;87572;-54
2022/10/14 12:25:02;;;;;;;1.10;1.00;;;;;;;;;;5044675;27;87156;-54
2022/10/14 12:27:30;;;;;;;1.33;1.07;;;;;;;;;;5044409;27;86270;-53
2022/10/14 12:29:59;;;;;;;2.07;1.40;;;;;;;;;;5043170;27;89009;-53
2022/10/14 12:32:29;;;;;;;0.97;0.80;;;;;;;;;;5043595;27;87524;-54
2022/10/14 12:34:57;;;;;;;2.43;1.47;;;;;;;;;;5043420;27;88002;-54
2022/10/14 12:37:50;;;;;;;1.27;1.17;;;;;;;;;;5044239;27;86992;-53
2022/10/14 12:40:25;;;;;;;1.97;1.13;;;;;;;;;;5043380;27;88191;-53
2022/10/14 12:43:22;;;;;;;1.73;1.10;;;;;;;;;;5043592;27;87724;-53
2022/10/14 12:46:08;;;;;;;1.33;1.00;;;;;;;;;;5020073;27;86927;-53
2022/10/14 12:48:38;;;;;;;1.27;0.83;;;;;;;;;;5037301;27;87004;-54
2022/10/14 12:51:11;;;;;;;2.20;1.40;;;;;;;;;;5043769;27;88105;-55
2022/10/14 12:53:40;;;;;;;2.57;1.57;;;;;;;;;;5043843;27;87609;-54
2022/10/14 12:56:10;;;;;;;1.20;1.07;;;;;;;;;;5043619;27;87046;-54
2022/10/14 12:58:39;;;;;;;1.33;1.03;;;;;;;;;;5043621;27;87886;-54
2022/10/14 13:01:08;;;;;;;1.60;1.00;;;;;;;;;;5042636;27;88689;-55
2022/10/14 13:03:40;;;;;;;1.73;1.07;;;;;;;;;;5043335;27;90039;-53
2022/10/14 13:06:30;;;;;;;2.23;0.87;;;;;;;;;;5043678;27;87005;-53
2022/10/14 13:09:14;;;;;;;1.93;1.10;;;;;;;;;;5043878;27;86973;-53
2022/10/14 13:11:42;;;;;;;1.27;1.00;;;;;;;;;;5033990;27;89069;-54
2022/10/14 13:14:20;;;;;;;3.00;1.30;;;;;;;;;;5043569;27;88650;-54
2022/10/14 13:16:58;;;;;;;1.30;1.10;;;;;;;;;;5043346;27;86993;-54
2022/10/14 13:19:42;;;;;;;1.73;0.87;;;;;;;;;;5043375;27;86180;-54
2022/10/14 13:22:30;;;;;;;2.53;1.17;;;;;;;;;;5042670;28;89213;-53
2022/10/14 13:25:06;;;;;;;1.77;1.07;;;;;;;;;;5043397;27;88755;-54
2022/10/14 13:27:35;;;;;;;1.10;1.00;;;;;;;;;;5042691;27;87775;-54
2022/10/14 13:30:04;;;;;;;0.50;0.50;;;;;;;;;;5042591;27;86978;-53
2022/10/14 13:32:34;;;;;;;1.30;1.17;;;;;;;;;;5042913;27;89310;-54
2022/10/14 13:35:06;;;;;;;1.87;1.13;;;;;;;;;;5042941;28;88872;-54
2022/10/14 13:37:35;;;;;;;3.47;0.90;;;;;;;;;;5043040;27;86990;-54
2022/10/14 13:40:09;;;;;;;1.13;1.03;;;;;;;;;;5042866;27;86843;-53
2022/10/14 13:42:37;;;;;;;0.87;0.87;;;;;;;;;;5042999;27;86906;-52
2022/10/14 13:45:06;;;;;;;1.10;0.70;;;;;;;;;;5042738;27;86551;-53
2022/10/14 13:47:34;;;;;;;0.83;0.73;;;;;;;;;;5043091;27;86998;-53
2022/10/14 13:50:03;;;;;;;0.87;0.80;;;;;;;;;;5042773;27;87020;-54
2022/10/14 13:52:33;;;;;;;1.33;0.80;;;;;;;;;;5041874;27;90019;-54
2022/10/14 13:55:14;;;;;;;0.73;0.73;;;;;;;;;;5042697;27;88695;-54
2022/10/14 13:57:42;;;;;;;0.87;0.80;;;;;;;;;;5042390;27;86956;-53
2022/10/14 14:00:30;;;;;;;0.60;0.60;;;;;;;;;;5042100;27;87010;-54
2022/10/14 14:03:12;;;;;;;0.67;0.67;;;;;;;;;;5042405;27;89204;-53
2022/10/14 14:05:40;;;;;;;0.80;0.70;;;;;;;;;;5042635;27;88644;-54
2022/10/14 14:08:13;;;;;;;1.23;1.00;;;;;;;;;;5042961;27;86719;-54
2022/10/14 14:11:01;;;;;;;1.27;0.87;;;;;;;;;;5042580;27;86335;-53
2022/10/14 14:13:46;;;;;;;1.10;1.03;;;;;;;;;;5042472;27;89127;-54
2022/10/14 14:16:23;;;;;;;1.67;0.83;;;;;;;;;;5042093;27;87843;-54
2022/10/14 14:18:52;;;;;;;0.83;0.80;;;;;;;;;;5041814;27;87773;-53
2022/10/14 14:21:35;;;;;;;0.77;0.77;;;;;;;;;;5042110;28;86962;-53
2022/10/14 14:24:07;;;;;;;1.03;0.70;;;;;;;;;;5040994;28;88989;-54
2022/10/14 14:26:35;;;;;;;1.27;0.87;;;;;;;;;;5041913;28;88896;-54
2022/10/14 14:29:04;;;;;;;0.83;0.60;;;;;;;;;;5041708;27;86976;-54
2022/10/14 14:31:35;;;;;;;0.93;0.43;;;;;;;;;;5042253;27;87023;-53
2022/10/14 14:34:23;;;;;;;1.07;0.73;;;;;;;;;;5041482;28;87827;-53
2022/10/14 14:36:52;;;;;;;1.13;0.70;;;;;;;;;;5042710;28;87806;-54
2022/10/14 14:39:27;;;;;;;0.90;0.60;;;;;;;;;;5041925;27;87022;-55
2022/10/14 14:41:55;;;;;;;0.47;0.47;;;;;;;;;;5040543;27;87050;-54
2022/10/14 14:44:24;;;;;;;0.57;0.53;;;;;;;;;;5039589;27;88287;-53
2022/10/14 14:46:54;;;;;;;0.80;0.80;;;;;;;;;;5041390;27;89890;-54
2022/10/14 14:49:23;;;;;;;1.13;0.93;;;;;;;;;;5042045;27;87149;-54
2022/10/14 14:51:51;;;;;;;0.60;0.60;;;;;;;;;;5042072;27;86966;-55
2022/10/14 14:54:20;;;;;;;1.87;0.60;;;;;;;;;;5042004;28;89010;-55
2022/10/14 14:56:50;;;;;;;1.33;0.83;;;;;;;;;;5041550;27;88546;-55
2022/10/14 14:59:21;;;;;;;0.53;0.53;;;;;;;;;;5041385;27;86758;-56
2022/10/14 15:01:49;;;;;;;0.67;0.67;;;;;;;;;;5041879;27;86255;-55
2022/10/14 15:04:18;;;;;;;0.73;0.70;;;;;;;;;;5043385;27;89041;-57